Time;durP1;ratioP1;P1;durP2;ratioP2;P2;SDS_P1;SDS_P2;PMS_P1;PMS_P2;Temp;Humidity;BMP_temperature;BMP_pressure;BME280_temperature;BME280_humidity;BME280_pressure;Samples;Min_cycle;Max_cycle;Signal;HPM_P1;HPM_P2
2021/12/15 00:02:19;;;;;;;38.77;14.43;;;;;;;1.76;100.00;99989.00;5113117;28;20224;-60
2021/12/15 00:04:49;;;;;;;36.80;14.13;;;;;;;1.77;100.00;99993.16;5113229;28;20688;-60
2021/12/15 00:07:17;;;;;;;47.00;15.70;;;;;;;1.64;100.00;99996.84;5112904;28;20242;-67
2021/12/15 00:09:44;;;;;;;37.90;15.03;;;;;;;1.60;100.00;99998.59;5113181;28;20203;-61
2021/12/15 00:12:13;;;;;;;39.97;14.63;;;;;;;1.59;100.00;100000.25;5113374;28;20595;-67
2021/12/15 00:14:42;;;;;;;38.33;14.90;;;;;;;1.58;100.00;99996.09;5113054;28;20208;-60
2021/12/15 00:17:10;;;;;;;33.90;14.00;;;;;;;1.61;100.00;100004.47;5112692;28;20235;-67
2021/12/15 00:19:38;;;;;;;42.13;15.60;;;;;;;1.72;100.00;100002.53;5113022;28;20223;-67
2021/12/15 00:22:07;;;;;;;38.53;15.10;;;;;;;1.62;100.00;100003.59;5112827;28;20227;-60
2021/12/15 00:24:34;;;;;;;39.00;14.80;;;;;;;1.60;100.00;100006.16;5112773;28;20203;-60
2021/12/15 00:27:01;;;;;;;35.80;13.43;;;;;;;1.67;100.00;100011.88;5112775;28;20356;-67
2021/12/15 00:29:29;;;;;;;40.83;14.47;;;;;;;1.72;100.00;100005.88;5112798;28;20197;-60
2021/12/15 00:31:57;;;;;;;42.50;15.00;;;;;;;1.69;100.00;100005.13;5112960;28;20221;-61
2021/12/15 00:34:26;;;;;;;46.67;14.33;;;;;;;1.77;100.00;100008.28;5112560;28;20691;-68
2021/12/15 00:36:53;;;;;;;35.30;13.40;;;;;;;1.72;100.00;100010.09;5112958;28;20221;-67
2021/12/15 00:39:26;;;;;;;37.57;14.13;;;;;;;1.66;100.00;100010.22;5112376;28;20201;-68
2021/12/15 00:41:52;;;;;;;44.33;14.27;;;;;;;1.62;100.00;100013.66;5112766;28;20740;-60
2021/12/15 00:44:20;;;;;;;35.23;13.50;;;;;;;1.51;100.00;100011.34;5112645;28;20231;-61
2021/12/15 00:46:50;;;;;;;38.63;15.10;;;;;;;1.51;100.00;100012.22;5112073;28;20233;-61
2021/12/15 00:49:17;;;;;;;40.50;15.17;;;;;;;1.57;100.00;100017.13;5112495;28;20588;-67
2021/12/15 00:51:45;;;;;;;37.07;14.03;;;;;;;1.56;100.00;100017.97;5111865;28;20722;-60
2021/12/15 00:54:13;;;;;;;34.23;14.40;;;;;;;1.57;100.00;100011.22;5112210;28;20593;-67
2021/12/15 00:56:40;;;;;;;34.17;14.27;;;;;;;1.53;100.00;100010.47;5112099;28;20752;-60
2021/12/15 00:59:10;;;;;;;32.83;13.47;;;;;;;1.48;100.00;100002.16;5112039;28;20623;-61
2021/12/15 01:01:39;;;;;;;31.13;12.60;;;;;;;1.60;100.00;100008.66;5112072;28;20209;-60
2021/12/15 01:04:09;;;;;;;34.53;12.93;;;;;;;1.50;100.00;100008.00;5111877;28;20205;-60
2021/12/15 01:06:37;;;;;;;34.60;13.87;;;;;;;1.48;100.00;100012.25;5111625;28;20240;-67
2021/12/15 01:09:12;;;;;;;32.20;11.50;;;;;;;1.50;100.00;100008.00;5111762;28;20205;-60
2021/12/15 01:12:06;;;;;;;32.23;13.03;;;;;;;1.48;100.00;100006.38;5111861;28;20223;-60
2021/12/15 01:19:47;;;;;;;34.87;12.97;;;;;;;1.44;100.00;100010.66;5111639;28;20197;-60
2021/12/15 01:20:24;;;;;;;38.20;14.03;;;;;;;1.39;100.00;100007.41;5088957;28;20194;-68
2021/12/15 01:22:53;;;;;;;35.03;13.23;;;;;;;1.41;100.00;100007.38;5106431;28;20620;-60
2021/12/15 01:25:26;;;;;;;36.83;13.67;;;;;;;1.34;100.00;100004.97;5111601;28;20211;-60
2021/12/15 01:27:53;;;;;;;38.63;13.60;;;;;;;1.34;100.00;100001.63;5111482;28;20255;-61
2021/12/15 01:30:23;;;;;;;29.23;12.80;;;;;;;1.32;100.00;99995.78;5111440;28;20204;-60
2021/12/15 01:32:50;;;;;;;35.57;13.00;;;;;;;1.29;100.00;99998.38;5111241;28;20219;-60
2021/12/15 01:35:19;;;;;;;29.70;11.13;;;;;;;1.29;100.00;99995.84;5111544;28;20211;-60
2021/12/15 01:37:47;;;;;;;33.93;12.57;;;;;;;1.33;100.00;100002.47;5111219;28;20510;-67
2021/12/15 01:40:23;;;;;;;34.07;13.07;;;;;;;1.23;100.00;99990.94;5111125;28;20201;-60
2021/12/15 01:42:51;;;;;;;30.90;12.40;;;;;;;1.25;100.00;99986.69;5111187;27;20300;-60
2021/12/15 01:48:05;;;;;;;35.13;12.90;;;;;;;1.23;100.00;99979.16;5111158;28;20731;-60
2021/12/15 01:50:33;;;;;;;31.97;12.50;;;;;;;1.30;100.00;99982.38;5111183;28;20678;-68
2021/12/15 01:52:59;;;;;;;28.93;12.37;;;;;;;1.32;100.00;99980.69;5111531;28;20595;-67
2021/12/15 01:55:27;;;;;;;33.60;12.90;;;;;;;1.31;100.00;99974.00;5111215;28;20197;-67
2021/12/15 01:57:55;;;;;;;30.83;11.70;;;;;;;1.29;100.00;99970.66;5111267;28;20225;-67
2021/12/15 02:00:26;;;;;;;30.33;12.77;;;;;;;1.29;100.00;99965.63;5111142;28;20201;-60
2021/12/15 02:02:54;;;;;;;34.47;12.03;;;;;;;1.18;100.00;99970.03;5110947;28;20213;-68
2021/12/15 02:05:21;;;;;;;33.10;12.03;;;;;;;1.27;100.00;99972.38;5110932;28;20537;-67
2021/12/15 02:07:50;;;;;;;31.50;12.20;;;;;;;1.29;100.00;99973.19;5110780;28;20430;-68
2021/12/15 02:10:19;;;;;;;32.67;11.20;;;;;;;1.22;100.00;99974.16;5110840;28;20670;-68
2021/12/15 02:12:47;;;;;;;33.50;11.97;;;;;;;1.18;100.00;99972.56;5110951;28;20217;-60
2021/12/15 02:15:18;;;;;;;30.53;12.07;;;;;;;1.13;100.00;99976.00;5110779;28;20287;-67
2021/12/15 02:17:46;;;;;;;30.77;12.83;;;;;;;1.17;100.00;99971.75;5110735;28;20228;-60
2021/12/15 02:20:18;;;;;;;26.97;12.10;;;;;;;1.10;100.00;99965.97;5110721;28;20197;-67
2021/12/15 02:22:46;;;;;;;33.03;12.33;;;;;;;1.12;100.00;99974.34;5110578;28;20217;-60
2021/12/15 02:25:16;;;;;;;35.67;12.53;;;;;;;1.14;100.00;99974.31;5114634;28;20211;-68
2021/12/15 02:27:43;;;;;;;31.60;12.63;;;;;;;1.14;100.00;99974.31;5114719;28;20240;-60
2021/12/15 02:30:28;;;;;;;28.10;11.27;;;;;;;1.12;100.00;99974.34;5114931;28;20200;-66
2021/12/15 02:33:07;;;;;;;35.77;13.03;;;;;;;1.07;100.00;99976.09;5115056;28;20224;-60
2021/12/15 02:38:26;;;;;;;27.20;12.33;;;;;;;1.09;100.00;99974.38;5114913;28;20281;-61
2021/12/15 02:40:53;;;;;;;31.37;11.87;;;;;;;1.08;100.00;99974.44;5114925;28;20201;-67
2021/12/15 02:43:20;;;;;;;34.30;13.43;;;;;;;1.05;100.00;99966.94;5114772;28;20201;-68
2021/12/15 02:45:47;;;;;;;33.07;12.83;;;;;;;1.02;100.00;99962.78;5114709;28;20218;-68
2021/12/15 02:48:15;;;;;;;32.03;12.77;;;;;;;1.05;100.00;99971.97;5114669;28;20345;-68
2021/12/15 02:50:42;;;;;;;32.07;12.50;;;;;;;1.08;100.00;99979.47;5114633;28;20208;-67
2021/12/15 02:53:09;;;;;;;32.97;12.37;;;;;;;1.10;100.00;99973.53;5114819;28;20233;-60
2021/12/15 02:55:37;;;;;;;27.27;12.30;;;;;;;1.03;100.00;99978.72;5114588;28;20223;-66
2021/12/15 02:58:05;;;;;;;27.47;11.67;;;;;;;1.02;100.00;99972.88;5114130;28;20724;-60
2021/12/15 03:00:45;;;;;;;29.60;11.37;;;;;;;0.98;100.00;99966.22;5114387;28;20205;-60
2021/12/15 03:03:52;;;;;;;31.33;13.00;;;;;;;1.01;100.00;99966.16;5114307;28;20679;-67
2021/12/15 03:06:27;;;;;;;36.10;13.73;;;;;;;0.92;100.00;99958.78;5114312;28;20306;-60
2021/12/15 03:09:10;;;;;;;29.00;11.60;;;;;;;0.98;100.00;99962.88;5114306;28;20197;-67
2021/12/15 03:17:07;;;;;;;32.07;11.50;;;;;;;1.02;100.00;99967.81;5114114;28;20346;-60
2021/12/15 03:19:36;;;;;;;30.10;11.80;;;;;;;1.02;100.00;99962.78;5114057;28;20199;-60
2021/12/15 03:22:03;;;;;;;31.53;11.77;;;;;;;0.99;100.00;99965.38;5113906;28;20217;-60
2021/12/15 03:24:30;;;;;;;26.70;12.00;;;;;;;0.99;100.00;99975.44;5113906;27;20204;-68
2021/12/15 03:27:04;;;;;;;27.47;10.73;;;;;;;1.00;100.00;99974.56;5113993;28;20237;-61
2021/12/15 03:35:18;;;;;;;23.13;10.40;;;;;;;1.00;100.00;99979.59;5113651;28;20573;-67
2021/12/15 03:37:48;;;;;;;33.67;10.57;;;;;;;0.96;100.00;99972.13;5114078;28;20218;-60
2021/12/15 03:40:19;;;;;;;28.00;10.73;;;;;;;1.00;100.00;99974.56;5114041;28;20202;-67
2021/12/15 03:42:51;;;;;;;26.83;11.50;;;;;;;0.95;100.00;99976.34;5113618;28;20407;-60
2021/12/15 03:45:24;;;;;;;31.40;11.67;;;;;;;0.97;100.00;99974.63;5113568;28;20201;-68
2021/12/15 03:47:52;;;;;;;28.20;10.83;;;;;;;0.99;100.00;99983.00;5113502;28;20706;-60
2021/12/15 03:50:22;;;;;;;27.97;11.27;;;;;;;1.00;100.00;99983.81;5113501;28;22466;-67
2021/12/15 03:52:50;;;;;;;27.73;11.90;;;;;;;1.04;100.00;99976.16;5113217;28;20231;-67
2021/12/15 03:55:17;;;;;;;25.70;9.67;;;;;;;0.99;100.00;99972.91;5113214;28;20627;-60
2021/12/15 03:57:44;;;;;;;25.80;10.50;;;;;;;0.92;100.00;99976.41;5113404;28;20217;-67
2021/12/15 04:00:15;;;;;;;26.83;11.03;;;;;;;0.97;100.00;99978.84;5113142;28;20203;-61
2021/12/15 04:02:43;;;;;;;28.70;11.73;;;;;;;0.99;100.00;99977.97;5112873;28;20736;-60
2021/12/15 04:05:12;;;;;;;29.63;11.57;;;;;;;1.03;100.00;99982.06;5113142;28;20201;-68
2021/12/15 04:07:39;;;;;;;26.73;10.97;;;;;;;0.94;100.00;99987.28;5113089;28;20233;-67
2021/12/15 04:10:09;;;;;;;26.70;11.57;;;;;;;1.01;100.00;99986.28;5113205;28;20224;-68
2021/12/15 04:12:36;;;;;;;30.27;12.00;;;;;;;0.92;100.00;99983.94;5112850;28;20223;-67
2021/12/15 04:15:20;;;;;;;30.43;12.30;;;;;;;1.00;100.00;99988.84;5112912;28;20223;-60
2021/12/15 04:17:49;;;;;;;29.10;12.17;;;;;;;0.94;100.00;99994.84;5112828;28;20220;-67
2021/12/15 04:20:19;;;;;;;30.67;11.87;;;;;;;0.90;100.00;99995.72;5112973;28;20208;-60
2021/12/15 04:22:47;;;;;;;32.53;11.63;;;;;;;0.91;100.00;99989.84;5112701;28;20225;-67
2021/12/15 04:25:16;;;;;;;29.90;12.07;;;;;;;0.90;100.00;99993.22;5112632;28;20202;-61
2021/12/15 04:27:53;;;;;;;26.03;11.43;;;;;;;0.84;100.00;100003.41;5112792;28;20255;-67
2021/12/15 04:30:20;;;;;;;28.17;11.17;;;;;;;0.95;100.00;100000.69;5112589;28;20215;-67
2021/12/15 04:32:49;;;;;;;25.07;11.07;;;;;;;0.88;100.00;100005.03;5112837;27;20286;-67
2021/12/15 04:35:16;;;;;;;27.23;10.40;;;;;;;0.98;100.00;100000.63;5112530;28;20205;-60
2021/12/15 04:37:45;;;;;;;29.40;12.13;;;;;;;0.99;100.00;99993.06;5112614;28;20219;-67
2021/12/15 04:40:15;;;;;;;26.50;11.33;;;;;;;1.00;100.00;100004.78;5112514;28;20193;-68
2021/12/15 04:42:43;;;;;;;28.63;12.07;;;;;;;1.06;100.00;99999.63;5112327;28;20220;-60
2021/12/15 04:45:13;;;;;;;27.67;11.83;;;;;;;0.93;100.00;99995.66;5112311;28;20689;-60
2021/12/15 04:47:40;;;;;;;29.93;12.27;;;;;;;0.95;100.00;99995.66;5111666;28;20251;-60
2021/12/15 04:50:10;;;;;;;28.40;11.70;;;;;;;0.95;100.00;99996.47;5112409;28;20197;-60
2021/12/15 04:52:38;;;;;;;24.10;10.80;;;;;;;0.92;100.00;100004.09;5112305;28;20224;-60
2021/12/15 04:55:07;;;;;;;30.40;11.70;;;;;;;0.90;100.00;99998.25;5112371;28;20189;-68
2021/12/15 04:57:35;;;;;;;27.87;11.70;;;;;;;0.87;100.00;100003.34;5111905;28;20221;-68
2021/12/15 05:00:02;;;;;;;27.57;11.23;;;;;;;0.87;100.00;100004.19;5111901;28;20207;-67
2021/12/15 05:02:30;;;;;;;31.50;12.50;;;;;;;0.87;100.00;100008.38;5111997;28;20607;-60
2021/12/15 05:04:58;;;;;;;26.87;10.83;;;;;;;0.82;100.00;100005.13;5111903;28;20193;-67
2021/12/15 05:07:26;;;;;;;29.03;12.57;;;;;;;0.86;100.00;100006.72;5112087;28;20263;-60
2021/12/15 05:09:54;;;;;;;26.13;12.03;;;;;;;0.77;100.00;100009.41;5111964;28;20197;-61
2021/12/15 05:12:22;;;;;;;23.43;10.60;;;;;;;0.81;100.00;100014.34;5111994;28;20266;-60
2021/12/15 05:14:50;;;;;;;25.80;10.30;;;;;;;0.86;100.00;100016.78;5111959;28;20201;-60
2021/12/15 05:17:17;;;;;;;35.67;13.43;;;;;;;0.82;100.00;100015.19;5111685;28;20221;-61
2021/12/15 05:19:46;;;;;;;28.80;11.17;;;;;;;0.81;100.00;100016.84;5111836;28;20201;-67
2021/12/15 05:22:14;;;;;;;29.23;11.60;;;;;;;0.83;100.00;100016.84;5111879;28;20699;-68
2021/12/15 05:24:43;;;;;;;26.20;10.83;;;;;;;0.80;100.00;100021.94;5111569;28;20296;-60
2021/12/15 05:27:12;;;;;;;28.53;11.33;;;;;;;0.78;100.00;100021.13;5111474;28;20217;-67
2021/12/15 05:29:41;;;;;;;27.07;11.10;;;;;;;0.73;100.00;100017.84;5111535;28;20199;-60
2021/12/15 05:32:09;;;;;;;22.10;10.47;;;;;;;0.75;100.00;100029.56;5111471;28;20224;-67
2021/12/15 05:34:37;;;;;;;27.03;11.83;;;;;;;0.76;100.00;100030.41;5111383;28;20197;-68
2021/12/15 05:37:05;;;;;;;25.83;11.40;;;;;;;0.74;100.00;100027.06;5111747;28;20236;-68
2021/12/15 05:39:32;;;;;;;24.13;9.60;;;;;;;0.78;100.00;100032.03;5111262;28;20209;-60
2021/12/15 05:42:00;;;;;;;24.93;11.27;;;;;;;0.80;100.00;100032.00;5111499;28;20691;-67
2021/12/15 05:44:28;;;;;;;24.90;11.33;;;;;;;0.71;100.00;100039.72;5111516;28;20198;-67
2021/12/15 05:46:58;;;;;;;27.20;12.07;;;;;;;0.75;100.00;100039.63;5111492;28;20223;-67
2021/12/15 05:49:26;;;;;;;25.60;11.30;;;;;;;0.74;100.00;100039.66;5111179;28;20722;-68
2021/12/15 05:51:54;;;;;;;30.00;12.37;;;;;;;0.70;100.00;100038.03;5111391;28;20225;-60
2021/12/15 05:54:21;;;;;;;25.57;11.10;;;;;;;0.68;100.00;100033.88;5111226;28;20212;-67
2021/12/15 05:56:49;;;;;;;27.23;11.03;;;;;;;0.65;100.00;100028.88;5111449;28;20217;-68
2021/12/15 05:59:17;;;;;;;26.43;10.23;;;;;;;0.78;100.00;100029.50;5110101;28;20204;-61
2021/12/15 06:01:44;;;;;;;23.77;10.20;;;;;;;0.77;100.00;100042.13;5111271;28;20604;-61
2021/12/15 06:04:13;;;;;;;30.47;11.67;;;;;;;0.76;100.00;100030.41;5110941;28;20588;-60
2021/12/15 06:06:40;;;;;;;24.67;10.57;;;;;;;0.75;100.00;100029.56;5111009;28;20631;-60
2021/12/15 06:09:10;;;;;;;25.27;11.13;;;;;;;0.82;100.00;100030.31;5110728;28;20239;-60
2021/12/15 06:11:38;;;;;;;26.57;10.97;;;;;;;0.80;100.00;100032.81;5110849;28;20220;-61
2021/12/15 06:14:05;;;;;;;25.20;10.77;;;;;;;0.79;100.00;100030.34;5110747;28;20211;-60
2021/12/15 06:16:35;;;;;;;25.00;10.57;;;;;;;0.74;100.00;100029.59;5110901;28;20221;-67
2021/12/15 06:19:03;;;;;;;23.23;10.60;;;;;;;0.72;100.00;100033.81;5110701;28;20718;-67
2021/12/15 06:21:31;;;;;;;27.60;10.27;;;;;;;0.67;100.00;100037.25;5110927;28;20217;-68
2021/12/15 06:23:58;;;;;;;26.13;10.63;;;;;;;0.85;100.00;100035.28;5111007;28;20204;-60
2021/12/15 06:26:25;;;;;;;24.13;10.00;;;;;;;0.78;100.00;100033.72;5111167;28;20300;-60
2021/12/15 06:28:52;;;;;;;26.93;10.83;;;;;;;0.83;100.00;100029.44;5110627;28;20228;-60
2021/12/15 06:31:19;;;;;;;30.30;10.67;;;;;;;0.81;100.00;100033.66;5110857;28;20278;-68
2021/12/15 06:33:48;;;;;;;24.67;10.77;;;;;;;0.81;100.00;100031.97;5110508;28;20208;-60
2021/12/15 06:36:20;;;;;;;25.93;10.13;;;;;;;0.82;100.00;100011.00;5110851;28;20217;-68
2021/12/15 06:38:48;;;;;;;25.40;11.07;;;;;;;0.81;100.00;100005.97;5110671;28;20674;-68
2021/12/15 06:41:16;;;;;;;24.93;10.97;;;;;;;0.81;100.00;100018.56;5110494;28;20219;-61
2021/12/15 06:43:47;;;;;;;24.33;10.23;;;;;;;0.84;100.00;100029.41;5110525;28;20783;-68
2021/12/15 06:46:37;;;;;;;25.00;11.27;;;;;;;0.83;100.00;100031.94;5110889;28;20244;-60
2021/12/15 06:58:10;;;;;;;20.93;9.63;;;;;;;0.86;100.00;100036.94;5110310;28;20506;-60
2021/12/15 07:00:22;;;;;;;22.50;9.40;;;;;;;0.93;100.00;100037.66;5110205;28;20216;-67
2021/12/15 07:02:49;;;;;;;23.07;9.70;;;;;;;0.97;100.00;100035.06;5110266;28;20221;-60
2021/12/15 07:05:18;;;;;;;21.37;9.60;;;;;;;0.98;100.00;100051.00;5110335;28;20211;-67
2021/12/15 07:07:47;;;;;;;23.23;9.83;;;;;;;1.00;100.00;100060.19;5110192;28;20217;-68
2021/12/15 07:10:18;;;;;;;23.83;9.83;;;;;;;1.02;100.00;100065.19;5112508;28;20205;-68
2021/12/15 07:12:45;;;;;;;22.13;10.53;;;;;;;1.05;100.00;100072.72;5114162;28;20239;-60
2021/12/15 07:15:12;;;;;;;24.17;10.37;;;;;;;1.04;100.00;100071.84;5114272;28;20673;-60
2021/12/15 07:17:40;;;;;;;24.27;10.30;;;;;;;1.06;100.00;100075.19;5114313;28;20217;-60
2021/12/15 07:20:30;;;;;;;22.83;10.07;;;;;;;1.15;100.00;100073.38;5114121;28;20280;-61
2021/12/15 07:22:58;;;;;;;22.77;10.47;;;;;;;1.10;100.00;100079.28;5114082;28;20278;-68
2021/12/15 07:25:25;;;;;;;20.77;9.30;;;;;;;1.13;100.00;100085.97;5114351;28;20197;-60
2021/12/15 07:27:53;;;;;;;23.30;10.07;;;;;;;1.09;100.00;100080.16;5113800;28;20308;-68
2021/12/15 07:30:20;;;;;;;27.80;10.27;;;;;;;1.17;100.00;100081.72;5113970;28;20197;-60
2021/12/15 07:32:47;;;;;;;21.63;10.17;;;;;;;1.16;100.00;100080.06;5113420;28;20220;-67
2021/12/15 07:35:16;;;;;;;23.93;10.13;;;;;;;1.13;100.00;100081.78;5113669;28;20209;-61
2021/12/15 07:37:43;;;;;;;24.53;9.93;;;;;;;1.18;100.00;100076.66;5113633;28;20219;-60
2021/12/15 07:40:19;;;;;;;21.30;9.83;;;;;;;1.21;100.00;100079.13;5113618;28;20692;-68
2021/12/15 07:42:56;;;;;;;27.50;10.90;;;;;;;1.24;100.00;100083.28;5113484;28;20308;-65
2021/12/15 07:45:25;;;;;;;21.03;9.43;;;;;;;1.21;100.00;100086.66;5113759;28;20227;-68
2021/12/15 07:47:53;;;;;;;22.33;9.37;;;;;;;1.24;100.00;100080.75;5113766;28;20232;-60
2021/12/15 07:50:22;;;;;;;20.03;9.43;;;;;;;1.22;100.00;100075.75;5113678;28;20558;-60
2021/12/15 07:52:50;;;;;;;21.43;9.80;;;;;;;1.23;100.00;100086.66;5113439;28;20249;-67
2021/12/15 07:55:20;;;;;;;22.23;9.43;;;;;;;1.26;100.00;100091.63;5113488;28;20197;-60
2021/12/15 07:57:47;;;;;;;23.47;10.07;;;;;;;1.29;100.00;100094.09;5113294;28;20243;-67
2021/12/15 08:00:16;;;;;;;22.57;9.40;;;;;;;1.33;100.00;100093.19;5113359;27;20262;-68
2021/12/15 08:02:43;;;;;;;22.43;9.13;;;;;;;1.40;100.00;100103.97;5113318;28;20625;-61
2021/12/15 08:05:10;;;;;;;21.07;9.33;;;;;;;1.44;100.00;100106.41;5113312;28;20582;-60
2021/12/15 08:07:37;;;;;;;22.23;10.27;;;;;;;1.40;100.00;100114.91;5112972;28;20650;-68
2021/12/15 08:10:09;;;;;;;22.77;9.87;;;;;;;1.36;100.00;100128.38;5112847;28;20233;-68
2021/12/15 08:12:37;;;;;;;20.90;10.00;;;;;;;1.35;100.00;100122.53;5112925;28;20221;-68
2021/12/15 08:15:06;;;;;;;21.90;9.60;;;;;;;1.41;100.00;100120.75;5112806;28;20202;-68
2021/12/15 08:17:33;;;;;;;23.30;9.97;;;;;;;1.51;100.00;100122.25;5113157;28;20236;-60
2021/12/15 08:20:00;;;;;;;23.13;9.53;;;;;;;1.45;100.00;100128.22;5113125;28;20216;-60
2021/12/15 08:22:27;;;;;;;21.43;9.13;;;;;;;1.46;100.00;100139.97;5111868;28;20217;-67
2021/12/15 08:24:53;;;;;;;20.40;9.47;;;;;;;1.49;100.00;100139.91;5112930;28;20194;-60
2021/12/15 08:27:20;;;;;;;22.67;9.90;;;;;;;1.63;100.00;100131.25;5112459;28;20222;-68
2021/12/15 08:29:48;;;;;;;20.90;9.40;;;;;;;1.71;100.00;100134.47;5112660;28;20633;-60
2021/12/15 08:32:16;;;;;;;23.43;10.80;;;;;;;1.71;100.00;100134.47;5112240;28;20221;-60
2021/12/15 08:34:43;;;;;;;22.33;9.87;;;;;;;1.71;100.00;100129.44;5112628;27;20685;-61
2021/12/15 08:37:13;;;;;;;20.67;9.23;;;;;;;1.73;100.00;100127.72;5112656;28;20221;-60
2021/12/15 08:39:41;;;;;;;21.43;8.17;;;;;;;1.63;100.00;100117.00;5112406;28;20197;-67
2021/12/15 08:42:09;;;;;;;21.50;9.57;;;;;;;1.59;100.00;100108.63;5112909;28;20303;-67
2021/12/15 08:44:36;;;;;;;22.20;9.37;;;;;;;1.63;100.00;100103.53;5112611;28;20197;-67
2021/12/15 08:47:06;;;;;;;20.90;10.17;;;;;;;1.63;100.00;100095.97;5112757;28;20224;-68
2021/12/15 08:49:33;;;;;;;19.60;9.50;;;;;;;1.68;100.00;100089.16;5112103;28;20241;-60
2021/12/15 08:52:01;;;;;;;20.73;8.97;;;;;;;1.64;100.00;100083.34;5112258;28;20252;-68
2021/12/15 08:54:28;;;;;;;25.17;9.73;;;;;;;1.67;100.00;100070.69;5112375;28;20209;-67
2021/12/15 08:56:56;;;;;;;25.27;12.30;;;;;;;1.71;100.00;100077.31;5112363;27;20217;-60
2021/12/15 08:59:23;;;;;;;19.80;9.50;;;;;;;1.71;100.00;100091.63;5112138;28;20337;-67
2021/12/15 09:01:52;;;;;;;19.43;8.80;;;;;;;1.70;100.00;100097.53;5111838;28;20710;-60
2021/12/15 09:04:21;;;;;;;23.77;10.07;;;;;;;1.68;100.00;100104.28;5112186;28;20288;-61
2021/12/15 09:06:49;;;;;;;15.77;7.03;;;;;;;1.70;100.00;100097.53;5112079;28;20354;-60
2021/12/15 09:09:20;;;;;;;23.67;9.77;;;;;;;1.76;100.00;100102.44;5112037;28;20233;-67
2021/12/15 09:11:47;;;;;;;23.53;9.90;;;;;;;1.75;100.00;100105.84;5112277;28;20637;-60
2021/12/15 09:14:14;;;;;;;19.50;9.03;;;;;;;1.82;100.00;100109.88;5111946;28;20204;-68
2021/12/15 09:16:44;;;;;;;22.50;9.67;;;;;;;1.91;100.00;100112.22;5112100;28;20599;-65
2021/12/15 09:19:11;;;;;;;18.63;9.13;;;;;;;1.98;100.00;100103.69;5111618;28;20268;-60
2021/12/15 09:21:42;;;;;;;22.93;9.67;;;;;;;2.02;100.00;100100.22;5111845;28;20217;-61
2021/12/15 09:24:11;;;;;;;17.07;8.73;;;;;;;2.12;100.00;100100.03;5112052;28;20284;-68
2021/12/15 09:26:38;;;;;;;19.43;9.20;;;;;;;1.99;100.00;100100.28;5111415;28;20217;-67
2021/12/15 09:29:06;;;;;;;18.20;8.40;;;;;;;1.99;100.00;100095.25;5111287;28;20229;-60
2021/12/15 09:31:34;;;;;;;17.30;8.53;;;;;;;2.08;100.00;100095.91;5111818;28;20229;-60
2021/12/15 09:34:01;;;;;;;19.47;8.33;;;;;;;2.12;100.00;100100.03;5111460;28;20572;-60
2021/12/15 09:36:29;;;;;;;21.40;9.23;;;;;;;2.15;100.00;100097.44;5111369;28;20219;-62
2021/12/15 09:39:01;;;;;;;22.10;9.23;;;;;;;2.17;100.00;100098.22;5111530;28;20204;-62
2021/12/15 09:41:28;;;;;;;18.23;9.17;;;;;;;2.23;100.00;100095.56;5111182;28;20221;-67
2021/12/15 09:43:58;;;;;;;19.73;9.23;;;;;;;2.27;100.00;100099.72;5111579;28;20201;-61
2021/12/15 09:46:41;;;;;;;24.60;10.23;;;;;;;2.24;100.00;100104.78;5111667;28;20304;-68
2021/12/15 09:57:35;;;;;;;21.47;9.73;;;;;;;2.45;100.00;100094.25;5111126;28;20215;-67
2021/12/15 10:02:56;;;;;;;18.27;8.50;;;;;;;2.38;99.46;100090.19;5110936;28;20211;-68
2021/12/15 10:05:39;;;;;;;17.87;8.80;;;;;;;2.38;99.10;100091.88;5111081;28;20284;-61
2021/12/15 10:11:15;;;;;;;21.57;9.63;;;;;;;2.35;99.08;100087.72;5111181;28;20346;-67
2021/12/15 10:19:23;;;;;;;17.33;8.50;;;;;;;2.58;100.00;100093.94;5110912;28;20242;-68
2021/12/15 10:22:06;;;;;;;16.73;7.87;;;;;;;2.64;99.42;100093.81;5110883;28;20227;-60
2021/12/15 10:24:43;;;;;;;17.07;8.33;;;;;;;2.62;99.08;100090.50;5110926;28;20221;-60
2021/12/15 10:27:12;;;;;;;19.43;8.57;;;;;;;2.67;98.87;100097.09;5111112;28;20765;-60
2021/12/15 10:29:58;;;;;;;19.57;9.53;;;;;;;2.67;98.64;100098.78;5110441;28;20229;-68
2021/12/15 10:32:29;;;;;;;16.63;8.40;;;;;;;2.64;98.87;100091.28;5111012;28;20225;-61
2021/12/15 10:35:02;;;;;;;18.50;8.23;;;;;;;2.61;98.85;100094.69;5110848;28;20666;-61
2021/12/15 10:37:29;;;;;;;19.10;9.20;;;;;;;2.65;99.31;100092.97;5110552;28;20210;-68
2021/12/15 10:40:19;;;;;;;18.87;9.57;;;;;;;2.55;98.65;100089.81;5110944;28;20643;-67
2021/12/15 10:42:48;;;;;;;19.07;9.17;;;;;;;2.63;99.07;100092.97;5110649;28;20224;-61
2021/12/15 10:45:17;;;;;;;28.30;12.07;;;;;;;2.71;99.16;100085.25;5112678;28;20592;-68
2021/12/15 10:47:49;;;;;;;26.63;12.80;;;;;;;2.77;99.33;100085.09;5114476;28;20404;-60
2021/12/15 10:50:20;;;;;;;97.73;31.23;;;;;;;2.81;99.87;100084.13;5114716;28;20217;-61
2021/12/15 10:52:56;;;;;;;19.30;9.67;;;;;;;2.76;99.44;100077.53;5114797;28;20612;-67
2021/12/15 10:55:29;;;;;;;18.83;8.93;;;;;;;2.79;99.33;100075.75;5114455;28;20197;-60
2021/12/15 10:58:00;;;;;;;18.33;9.33;;;;;;;2.83;98.75;100072.31;5114434;28;20221;-60
2021/12/15 11:00:33;;;;;;;21.50;9.50;;;;;;;2.69;98.78;100069.28;5114627;28;20221;-60
2021/12/15 11:03:06;;;;;;;18.17;8.67;;;;;;;2.75;99.63;100071.66;5114583;28;20217;-60
2021/12/15 11:05:35;;;;;;;18.70;8.83;;;;;;;2.80;99.31;100069.03;5114576;28;20197;-68
2021/12/15 11:08:02;;;;;;;20.57;10.20;;;;;;;2.79;99.60;100062.31;5114264;28;20228;-61
2021/12/15 11:10:31;;;;;;;30.27;11.47;;;;;;;2.81;100.00;100061.41;5114265;28;20224;-68
2021/12/15 11:13:02;;;;;;;21.73;9.50;;;;;;;2.96;99.58;100052.59;5114337;28;20221;-68
2021/12/15 11:15:30;;;;;;;21.60;9.30;;;;;;;2.92;99.80;100043.47;5114466;28;20228;-60
2021/12/15 11:18:00;;;;;;;25.23;10.33;;;;;;;2.97;99.78;100058.47;5114275;28;20224;-60
2021/12/15 11:20:29;;;;;;;20.43;9.73;;;;;;;3.04;99.36;100052.44;5114178;28;20197;-60
2021/12/15 11:23:00;;;;;;;23.70;10.43;;;;;;;3.04;98.68;100052.44;5113984;28;20217;-68
2021/12/15 11:25:32;;;;;;;24.93;11.30;;;;;;;3.01;98.56;100060.09;5114238;28;20198;-68
2021/12/15 11:28:04;;;;;;;20.03;10.23;;;;;;;3.16;98.60;100062.22;5114151;28;20240;-61
2021/12/15 11:30:36;;;;;;;22.10;10.30;;;;;;;3.13;98.35;100047.94;5114126;28;20229;-69
2021/12/15 11:33:07;;;;;;;23.93;10.10;;;;;;;3.17;98.82;100059.66;5113847;28;20221;-61
2021/12/15 11:35:37;;;;;;;24.00;10.80;;;;;;;3.11;98.50;100051.38;5113894;28;20206;-68
2021/12/15 11:38:08;;;;;;;21.80;9.93;;;;;;;3.12;98.36;100051.34;5113667;28;20232;-60
2021/12/15 11:40:42;;;;;;;25.03;11.23;;;;;;;3.03;97.92;100048.25;5113863;28;20197;-68
2021/12/15 11:43:26;;;;;;;27.67;11.37;;;;;;;3.01;98.07;100049.97;5113748;28;20209;-67
2021/12/15 11:45:54;;;;;;;25.10;11.70;;;;;;;2.90;98.50;100051.06;5113596;28;20197;-60
2021/12/15 11:48:26;;;;;;;31.40;13.03;;;;;;;2.90;99.22;100040.97;5113591;28;20244;-67
2021/12/15 11:50:56;;;;;;;21.97;10.70;;;;;;;2.94;99.22;100037.50;5113739;28;20240;-61
2021/12/15 11:53:31;;;;;;;21.87;10.30;;;;;;;2.99;99.01;100039.06;5113582;28;20209;-67
2021/12/15 11:56:15;;;;;;;24.40;10.50;;;;;;;3.01;99.51;100032.28;5112514;28;20201;-68
2021/12/15 11:58:44;;;;;;;22.03;9.60;;;;;;;2.97;99.34;100030.69;5113255;28;20196;-61
2021/12/15 12:01:11;;;;;;;20.30;9.37;;;;;;;2.95;99.39;100033.28;5113539;27;20232;-65
2021/12/15 12:03:38;;;;;;;21.33;10.20;;;;;;;3.02;99.73;100028.88;5113119;28;20204;-67
2021/12/15 12:06:05;;;;;;;23.40;11.03;;;;;;;3.00;99.43;100033.19;5113438;28;20197;-68
2021/12/15 12:08:32;;;;;;;22.20;10.10;;;;;;;3.01;99.79;100028.06;5113068;28;20705;-67
2021/12/15 12:11:05;;;;;;;22.67;9.40;;;;;;;3.08;99.42;100028.72;5113128;28;20231;-61
2021/12/15 12:13:38;;;;;;;20.80;9.67;;;;;;;3.04;99.20;100022.09;5112961;28;20228;-68
2021/12/15 12:16:08;;;;;;;20.87;9.73;;;;;;;2.99;99.42;100018.88;5112930;28;20593;-68